Alle Lego-Sets mit ein Set Nummer von 41000 zu 42000

Sortieren nach
Set TitelPreisDifferenzHinzugefügt
Jetboot Vergnügen (41000)5,49 €- 0,50 € (8%)2012-12-17
Stephanies großer Auftritt (41004)24,95 €+ 4,96 € (25%)2012-12-17
Stephanie's Soccer Practice (41011)14,95 €+ 4,96 € (50%)2012-12-17
Olivias Gemüsegarten (41026)17,95 €- 2,04 € (10%)2013-12-27
Stephanies kleines Lämmchen (41029)7,95 €- 2,04 € (20%)2013-12-27
Andreas Berghütte (41031)19,45 €+ 9,46 € (95%)2014-05-31
Erste Hilfe Dschungel-Bike (41032)15,99 €+ 1,00 € (7%)2014-05-31
Adventskalender (41040)19,95 €- 5,04 € (20%)2014-09-02
Schildkrötenparadies (41041)3,25 €- 1,24 € (28%)2013-12-27
Tigertempel (41042)3,25 €- 1,24 € (28%)2013-12-27
Papageiengarten (41044)3,25 €- 1,24 € (28%)2014-05-14
Braunbär am Fluss (41046)4,95 €+ 0,46 € (10%)2014-05-14
Heartlake Einkaufszentrum (41058)89,95 €- 10,04 € (10%)2014-05-31
Auroras königliches Schlafzimmer (41060)13,89 €+ 0,90 € (7%)2014-12-23
Jasmins exotische Abenteuer (41061)16,81 €- 8,18 € (33%)2014-12-23
Elsas funkelnder Eispalast (41062)39,99 €--2014-12-23
Arielles Unterwasserschloss (41063)64,99 €+ 5,00 € (8%)2014-12-23
Rapunzels perfekter Tag (41065)16,81 €- 8,18 € (33%)2016-05-26
Annas und Kristoffs Schlittenabenteuer (41066)20,98 €- 9,01 € (30%)2015-12-04
Belles bezauberndes Schloss (41067)39,79 €- 10,20 € (20%)2016-05-26
Fest im großen Schloss von Arendelle (41068)34,67 €- 25,32 € (42%)2015-12-04
Korallinas Tag am Pool (41069)5,72 €- 2,27 € (28%)2015-12-15
Airas Erfinderwerkstatt (41071)9,99 €--2015-03-01
Naidas Abenteuerschiff (41073)26,87 €- 3,12 € (10%)2015-03-01
Das mystische Elfenversteck (41075)44,95 €- 5,04 € (10%)2015-03-01
Airas Pegasus-Schlitten (41077)34,95 €- 5,04 € (13%)2015-06-01
Skyras geheimnisvolles Himmelsschloss (41078)79,95 €- 10,04 € (11%)2015-06-01
Heartlake Friseursalon (41093)32,89 €- 0,10 € (0%)2014-12-25
Heartlake Leuchtturm (41094)34,99 €- 5,00 € (13%)2014-12-25
Emmas Familienhaus (41095)48,98 €- 21,01 € (30%)2014-12-25
Heartlake Heißluftballon (41097)22,95 €- 7,04 € (23%)2014-12-25
Emmas Kiosk (41098)7,95 €- 2,04 € (20%)2015-06-01
Heartlake Skatepark (41099)16,99 €- 3,00 € (15%)2015-06-01
Heartlake Jet (41100)22,95 €- 2,04 € (8%)2015-06-01
Heartlake Großes Hotel (41101)86,72 €- 43,27 € (33%)2015-06-01
LEGO® Friends Adventskalender (41102)19,95 €- 0,04 € (0%)2015-09-01
Popstar Aufnahmestudio (41103)12,49 €- 2,50 € (17%)2015-06-01
Popstar Garderobe (41104)29,99 €--2015-06-01
Popstar Showbühne (41105)41,95 €- 3,04 € (7%)2015-06-01
Popstar Tourbus (41106)39,99 €- 20,00 € (33%)2015-06-01
Heartlake Flughafen (41109)84,95 €- 5,04 € (6%)2015-06-01
Geburtstagsparty (41110)15,95 €- 4,04 € (20%)2015-12-15
Partyzug (41111)7,95 €- 2,04 € (20%)2015-12-15
Partykuchen (41112)3,95 €- 1,04 € (21%)2015-12-15
Party-Geschenkeladen (41113)3,95 €- 1,04 € (21%)2015-12-15
Partystyling (41114)3,95 €- 1,04 € (21%)2015-12-15
Emmas Erfinderwerkstatt (41115)7,95 €- 2,04 € (20%)2015-12-19
Olivias Expeditionsauto (41116)14,95 €- 0,04 € (0%)2015-12-19
Popstar TV-Studio (41117)11,99 €- 13,00 € (52%)2015-12-19
Heartlake Supermarkt (41118)25,79 €- 9,20 € (26%)2015-12-19
Heartlake Cupcake-Café (41119)28,47 €- 11,52 € (29%)2015-12-19
Abenteuercamp Bogenschießen (41120)7,95 €- 2,04 € (20%)2015-12-15
Abenteuercamp Rafting (41121)24,95 €- 5,04 € (17%)2015-12-15
Abenteuercamp Baumhaus (41122)52,04 €- 17,95 € (26%)2015-12-15
Waschhäuschen für Emmas Fohlen (41123)7,09 €- 2,90 € (29%)2016-05-29
Heartlake Welpen-Betreuung (41124)21,02 €- 8,97 € (30%)2016-05-27
Pferdeanhänger und Tierärztin (41125)28,91 €- 11,08 € (28%)2016-05-27
Heartlake Reiterhof (41126)40,48 €- 24,51 € (38%)2016-05-27
Spielspaß im Freizeitpark (41127)10,93 €- 4,06 € (27%)2016-05-27
Raketen-Karussell (41128)15,13 €- 4,86 € (24%)2016-05-27
Hot-Dog-Stand im Freizeitpark (41129)21,02 €- 8,97 € (30%)2016-05-27
Großer Freizeitpark (41130)79,95 €- 20,04 € (20%)2016-05-27
LEGO® Friends Adventskalender 2016 (41131)14,99 €- 5,00 € (25%)2016-08-31
Heartlake Partyladen (41132)29,99 €--2016-05-29
Autoscooter im Freizeitpark (41133)28,91 €- 11,08 € (28%)2016-05-29
Niedrigsten PreisHeartlake Kunstschule (41134)79,99 €--2016-05-29
Livis Popstar-Villa (41135)48,50 €- 6,49 € (12%)2015-12-15
Daisys Schönheitssalon (41140)6,22 €- 3,77 € (38%)2015-12-15
Ballerines Königskutsche (41141)9,18 €- 0,81 € (8%)2015-12-15
Königliches Schloss der Palasttiere (41142)15,85 €- 4,14 € (21%)2015-12-19
Berrys Küche (41143)5,77 €- 1,22 € (17%)2016-12-01
Suzettes Reitanlage (41144)8,39 €- 1,60 € (16%)2016-12-01
Annas eisiges Abenteuer (41147)16,69 €- 3,30 € (17%)2016-12-01
Niedrigsten PreisElsas magischer Eispalast (41148)54,98 €- 15,01 € (21%)2016-12-01
Vaianas Abenteuerinsel (41149)24,69 €- 5,30 € (18%)2016-12-01
Vaiana auf hoher See (41150)34,95 €- 5,04 € (13%)2016-12-01
Emily Jones & das Winddrachen-Baby (41171)13,95 €+ 3,96 € (40%)2016-03-01
Abenteuer mit dem Wasserdrachen (41172)14,50 €- 10,49 € (42%)2016-03-01
Drachenschule von Elvendale (41173)16,99 €- 3,00 € (15%)2016-03-01
Lavahöhle des Feuerdrachens (41175)32,99 €- 7,00 € (18%)2016-03-01
Der geheime Marktplatz (41176)48,93 €- 11,06 € (18%)2016-03-01
Die kostbare Kristallmine (41177)19,95 €- 5,04 € (20%)2016-05-26
Rettung der Drachenkönigin (41179)55,78 €- 14,21 € (20%)2016-05-26
Raganas magisches Schattenschloss (41180)67,83 €- 22,16 € (25%)2016-05-26
Niedrigsten PreisBatgirl™ auf den Fersen des Batjets (41230)19,95 €- 5,04 € (20%)2016-12-01
Niedrigsten PreisHarley Quinn™ eilt zu Hilfe (41231)25,95 €- 4,04 € (13%)2016-12-01
Niedrigsten PreisHighschool der Super Heroes (41232)64,42 €- 15,57 € (19%)2016-12-01
Niedrigsten PreisLashinas Action-Cruiser (41233)12,95 €- 2,04 € (14%)2016-12-01
Niedrigsten PreisBumblebees™ Hubschrauber (41234)12,06 €- 2,93 € (20%)2016-12-01
Niedrigsten PreisWonder Womans™ Schlafgemach (41235)15,95 €- 4,04 € (20%)2016-12-01
Welpen-Meisterschaft (41300)16,95 €- 3,04 € (15%)2016-12-01
Welpenparade (41301)12,60 €- 2,39 € (16%)2016-12-01
Niedrigsten PreisWelpensalon (41302)3,95 €- 1,04 € (21%)2016-12-01
Niedrigsten PreisWelpenspielplatz (41303)3,95 €- 1,04 € (21%)2016-12-01
Niedrigsten PreisWelpenpark (41304)3,95 €- 1,04 € (21%)2016-12-01
Niedrigsten PreisEmmas Fotostudio (41305)7,95 €- 2,04 € (20%)2016-12-01
Niedrigsten PreisMias Strandroller (41306)7,95 €- 2,04 € (20%)2016-12-01
Niedrigsten PreisOlivias Erfinderlabor (41307)7,95 €- 2,04 € (20%)2016-12-01
Niedrigsten PreisStephanies Backstube (41308)7,95 €- 2,04 € (20%)2016-12-01
Niedrigsten PreisAndreas Showbühne (41309)7,95 €- 2,04 € (20%)2016-12-01
Heartlake Geschenkeservice (41310)15,95 €- 4,04 € (20%)2016-12-01
Heartlake Pizzeria (41311)22,98 €- 7,01 € (23%)2016-12-01
Heartlake Sportzentrum (41312)32,88 €- 7,11 € (18%)2016-12-01
Heartlake Freibad (41313)38,99 €- 11,00 € (22%)2016-12-01
Stephanies Haus (41314)53,98 €- 16,01 € (23%)2016-12-01
Flain (41500)14,76 €+ 9,77 € (196%)2014-03-01
Gox (41536)6,95 €+ 2,96 € (74%)2015-06-01
Jinky (41537)4,28 €+ 0,29 € (7%)2015-06-01
Kamzo (41538)6,95 €+ 2,96 € (74%)2015-06-01
Spugg (41542)6,95 €+ 2,96 € (74%)2015-06-01
Turg (41543)6,95 €+ 2,96 € (74%)2015-06-01
Tungster (41544)6,95 €+ 2,96 € (74%)2015-06-01
Kuffs (41554)3,95 €- 0,04 € (1%)2016-01-31
Busto (41555)3,95 €- 0,04 € (1%)2016-01-31
Tiketz (41556)3,95 €- 0,04 € (1%)2016-01-31
Camillot (41557)3,95 €- 0,04 € (1%)2016-01-31
Mixadel (41558)3,90 €- 0,09 € (2%)2016-01-31
Paladum (41559)3,95 €- 0,04 € (1%)2016-01-31
Jamzy (41560)3,95 €- 0,04 € (1%)2016-01-31
Tapsy (41561)3,95 €- 0,04 € (1%)2016-01-31
Trumpsy (41562)3,95 €- 0,04 € (1%)2016-01-31
Niedrigsten PreisGobbol (41572)3,99 €--2016-10-01
Niedrigsten PreisSweepz (41573)3,99 €--2016-10-01
Niedrigsten PreisCompax (41574)3,99 €--2016-10-01
Niedrigsten PreisCobrax (41575)3,99 €--2016-10-01
Niedrigsten PreisSpinza (41576)3,99 €--2016-10-01
Niedrigsten PreisMysto (41577)3,99 €--2016-10-01
Niedrigsten PreisCamsta (41579)3,99 €--2016-10-01
Niedrigsten PreisMyke (41580)3,99 €--2016-10-01
4x4 Crawler Exclusive Edition (41999)749,99 €+ 570,00 € (317%)2013-08-01

Auch nicht verfügbar Sets zeigen